MSSS/SAL METAR and TAF weather

Enter ICAO airport designator
Station Type Date Time Source
MSSS METAR 2019/06/19 05:50 UTC NOAA

MSSS 190550Z 36003KT 9999 BKN053 25/24 Q1015 A2999


Station Type Date Time Source
MSSS Decoded METAR 2019/06/19 05:50 UTC NOAA

San Salvador / Ilopango, El Salvador (MSSS) 13-42N 089-07W 621M
Jun 19, 2019 - 01:50 AM EDT / 2019.06.19 0550 UTC
Wind: from the N (360 degrees) at 3 MPH (3 KT):0
Visibility: greater than 7 mile(s):0
Sky conditions: mostly cloudy
Temperature: 77 F (25 C)
Dew Point: 75 F (24 C)
Relative Humidity: 94%
Pressure (altimeter): 29.99 in. Hg (1015 hPa)
ob: MSSS 190550Z 36003KT 9999 BKN053 25/24 Q1015 A2999
cycle: 6

Station Type Date Time Source
MSSS TAF 2019/06/19 06:25 UTC NOAA

TAF MSSS 190325Z 1906/2006 33006KT 9999 SCT047 TX32/1920Z TN23/1912Z
FM191200 CAVOK
FM191800 19008KT 9999 FEW027 FEW040CB

Example: see airport list